Rappel vous devez vous enregistrer sous le nom : SAINT NAZAIRE OLYMPIQUE SA lors d’une compétition merci.

         
 
 
 
 
 
 

7,3 km foulées nature de penvins. sarzeau (56). (15/07/2018)

CLASS NOM PRENOM CAT TEMPS
60 BLANCHO Nancy 13 SE 00:47:50
73 BLANCHO Maryse 3 V3 00:52:00
 

15 km trail de guémené. guémené penfao (44). (14/07/2018)

CLASS NOM PRENOM CAT TEMPS
4 SEILLER Grégory 2 V1 01:02:46
 

7 km trail de guémené. guémené penfao (44). (14/07/2018)

CLASS NOM PRENOM CAT TEMPS
19 BOUTIN Manuela 1 SE 2F 00:40:09
 

37 km trail du vignemale. cauterets hautes pyrénées (65). (07/07/2018)

CLASS NOM PRENOM CAT TEMPS
76 RENAUD Nathalie 1 V2 06:45:29
 

14 km trail des côteaux saint péens. saint pé de bigorre (65). (07/07/2018)📷

CLASS NOM PRENOM CAT TEMPS
36 IZACARD Jean-Claude 4 V3 01:31:03
 

85 km l'ultra lat. luchon Aneto trail. luchon (31). (08/07/2018)📷

CLASS NOM PRENOM CAT TEMPS
76 BIZOT Sebastien 32 V1 17:48:16
77 BOUTIN Jean-Noel 33 V1 17:48:18
 

45 km la venasque. luchon Aneto trail. luchon (31). (08/07/2018)📷

CLASS NOM PRENOM CAT TEMPS
392 BIZOT Sandrine 34 V1 10:08:44
 

20 km trail du bout du monde. plouzane (29). (07/07/2018)

CLASS NOM PRENOM CAT TEMPS
245 CHEVALIER Patricia 8 V1 02:04:57
 

10,6 km courir a pornic. pornic (44). (08/07/2018)📷

CLASS NOM PRENOM CAT TEMPS
18 SEILLER Gregory 2 V1 00:38:03
70 DE PREVILLE Benoit 17 V1 00:42:44
71 CADIC Philippe 18 V1 00:42:54
84 GAILLARD Mickael 37 SE 00:43:27
179 BELLIOT Sebastien 44 V1 00:47:38
415 CHOTARD Sabine 4 V2 00:55:13
416 CHOTARD Alain 53 V2 00:55:14
 

14 km la course des crêtes du pays basque. espelette (64). (07/07/2018)

CLASS NOM PRENOM CAT TEMPS
504 MARZELIERE Philippe 127 SE 01:55:19
 

17 km trail du bro reoz. rieux (56). (07/07/2018)

CLASS NOM PRENOM CAT TEMPS
31 BOUVIER Thierry 5 V2 01:54:23
41 BABU Fabienne 2 V1 3F 02:04:41
 

9 km trail du bro reoz. rieux (56). (07/07/2018)

CLASS NOM PRENOM CAT TEMPS
3 SEILLER Grégory 1 V1 00:40:58
 

30 km pralo vu du ciel. trail la vanoise - pralognan. la vanoise (73). (01/07/2018)

CLASS NOM PRENOM CAT TEMPS
139 PHILIPPOT Anne- Laure 4 V1 05:10:07
 

31 km entre plages et chemins creux. Pornichet (44). (01/07/2018)📷

CLASS NOM PRENOM CAT TEMPS
20 GAILLARD Mickael 7 SE 02:27:45
24 HELOIR Stephane 4 V2 02:30:26
44 LE GAC Pascal 5 V2 02:39:43
61 BOUVIER Thierry 7 V2 02:44:35
81 PARLIER Guilhem 14 V2 02:50:05
83 LEVASSEUR Nicolas 28 SE 02:50:22
90 LARGERON Catherine 2 V2 02:53:01
115 LE NOC Michel 20 V2 03:00:07
149 SALIOU Pierre 28 V2 03:11:57
150 MAHE Jean-Pierre 7 V3 03:11:58
157 GUIHO Lionel 48 SE 03:14:43
162 TESSIER Christian 10 V3 03:17:36
175 CADORET Cedric 33 V2 03:29:53
178 ALEXANDRE Florian 35 V2 03:35:10
 

21 km entre plages et chemins creux. Pornichet (44). (01/07/2018)📷

CLASS NOM PRENOM CAT TEMPS
3 SEILLER Gregory 2 V1 01:21:22
32 DAUFFY Emilie 2 SE 01:35:07
76 BELLIOT Sebastien 33 V1 01:41:43
133 GOUMNA Sandrine 5 V1 01:48:27
142 DUBOIS Philippe 16 V2 01:49:13
146 GUIHENEUF Olivier 49 SE 01:49:56
160 MERABET Solene 7 SE 01:50:53
161 VIOLET Alain 20 V2 01:50:53
189 ALLANIC Steve 68 V1 01:53:42
190 HERVIEU Allan 65 SE 01:53:42
236 CHOTARD Alain 30 V2 01:57:23
249 GUILLOU- LE POINTER Delphine 16 V1 01:58:12
304 BABU Fabienne 22 V1 02:02:31
331 ANDERSEN Soeren 50 V2 02:05:11
332 MAIRE Dominique 51 V2 02:05:31
342 DUTHAY Thierry 53 V2 02:06:20
398 BERTHAUD Pierre-Yves 25 V3 02:11:38
414 SECHAUD Franck 141 V1 02:13:04
430 HOUARNER Morgane 21 SE 02:14:28
550 JEGUIRIM Pascal 94 V2 02:29:13
 

9 km entre plages et chemins creux. Pornichet (44). (01/07/2018)📷

CLASS NOM PRENOM CAT TEMPS
20 DOUAUD Christophe 4 V1 00:39:25
90 COLOMBEL Lydie 3 SE 00:46:05
134 BENARD Stéphanie 7 SE 00:49:10
158 PARESSANT Joel 6 V3 00:50:58
159 MAZZEI Sabine 2 V2 00:50:59
236 BLANCHARD Elise 21 SE 00:54:31
290 OLIVIER Arnaud 97 SE 00:56:48
292 GILARD Cecile 33 SE 00:56:55
358 AVERTY Sylvie 18 V2 01:00:20
375 DANIEL Celine 42 V1 01:01:24
396 PARLIER Sophie 25 V2 01:02:30
407 MILLON Eugene 7 V4 01:02:55
445 CHARPENTIER Nelly 29 V2 01:05:22
513 CHENEAU Gaetan 51 V2 01:13:24
 

177 km grand raid l'ultra marin. raid du golf du morbihan (56). (30/06/2018)

CLASS NOM PRENOM CAT TEMPS
419 JOALLAND Roger 2 V4 37:40:08
 

87 km raid l'ultra marin. raid du golf du morbihan (56). (30/06/2018)📷

CLASS NOM PRENOM CAT TEMPS
316 RENAUD Cecilia 29 V1 13:07:19
580 DUMONT Emmanuelle 20 SE 15:54:57
581 DESMAS Maxime 150 SE 15:54:58
668 SAUVOUREL Pascale 24 V2 17:32:06
669 HUGUET Anne 54 V1 17:32:08
670 CRISTEL Didier 121 V2 17:32:11
 

56 km trail l'ultra marin. raid du golf du morbihan (56). (30/06/2018)📷

CLASS NOM PRENOM CAT TEMPS
473 LESTE Julie 40 V1 07:37:03
 

36 km ronde des douaniers. l'ultra marin raid du golf du morbihan (56). (30/06/2018)📷

CLASS NOM PRENOM CAT TEMPS
71 BOUTIN Jean-Noel 18 V1 03:11:25
72 BIZOT Sebastien 19 V1 03:11:26
841 MABIT Frederic 202 V1 04:24:50
843 BIZOT Sandrine 106 V1 04:24:51
844 BRIQUET Delphine 107 V1 04:24:51
885 HANAFI Corinne 38 V2 04:27:33
968 AUDUREAU Virginie 106 SE 04:33:35
977 LEBRUN Odile 48 V2 04:34:24
992 BURGEOT Maryse 8 V3 04:35:09
1041 BLANCHO Nancy 117 SE 04:40:07
1108 PAILLARD Lionel 265 V1 04:44:44
1379 BLANCHO Maryse 19 V3 05:17:02
1473 BLANCHO Peggy 233 V1 05:40:06
 

21 km les coteaux de la logne. corcoué sur logne (44). (24/06/2018)

CLASS NOM PRENOM CAT TEMPS
6 SEILLER Grégory 1 V1 01:28:05
186 ALESSANDRINI Christine 6 V2 02:11:08
 

9,9 km les coteaux de la logne. corcoué sur logne (44). (24/06/2018)

CLASS NOM PRENOM CAT TEMPS
39 IZACARD Jean-Claude 2 V3 00:46:56
 

32 km trail des crêtes du mont-jouet. trail de bozel. savoie (73). (17/06/2018)

CLASS NOM PRENOM CAT TEMPS
123 PHILIPPOT Anne Laure 11 V1 05:13:23
 

10 km la monastérienne. les moutiers en retz (44). (17/06/2018)

CLASS NOM PRENOM CAT TEMPS
5 SEILLER Gregory 2 V1 00:35:20
 

22,4 km trail du mortier. glénac (56). (16/06/2018)

CLASS NOM PRENOM CAT TEMPS
129 PERON Marie-Luce 1 V3 02:27:37
130 LE GAC Pascal 29 V2 02:27:37
131 MAHE Jean-Pierre 5 V3 02:27:39
 

13 km course nature. trail du mortier. glénac (56). (16/06/2018)

CLASS NOM PRENOM CAT TEMPS
191 BLANCHO Nancy 11 SE 01:29:32
205 BLANCHO Maryse 3 V3 01:35:32
 

10,2 km la course des jonchères. le Croisic (44). (16/06/2018)📷

CLASS NOM PRENOM CAT TEMPS
5 SEILLER Gregory 1 V1 00:35:40
16 LE DOUARIN Francois 2 V1 00:37:51
22 CADIC Philippe 4 V1 00:39:11
42 IZACARD Jean-Claude 3 V3 00:41:41
67 RENAUD Nathalie 1 V2 3F 00:45:54
79 LARGERON Catherine 2 V2 00:47:52
107 ONFRAY Bertrand 27 V1 00:52:30
116 MARZELIERE Philippe 36 SE 00:54:17
119 DERRADJI Erder 4 V1 00:56:01
 

12 km trail du boël. pont rean (35). (10/06/2018)

CLASS NOM PRENOM CAT TEMPS
310 DELAHAYE Adele 32 SE 01:21:52
 

triathlon half chantonnay (85). (03/06/2018)

CLASS NOM PRENOM Natation
1,9 km
Vélo
94 km
Course
21 km
CAT TEMPS
27 DEPREVILLE Benoit 00:31:50 03:00:40 01:45:58 4 V2 05:22:53
83 COTET Sylvain 00:34:20 03:22:41 02:06:11 20 V2 06:08:34
99 BOUTIN Jean-Noel 00:43:57 03:45:51 02:03:56 27 V2 06:39:51
100 BIZOT Sébastien 00:43:52 03:45:58 02:03:56 28 V2 06:39:51
 

44 km défi (10 + 34) maré routrail. la Turballe maré trail. la Turballe (44). (10/06/2018)📷

CLASS NOM PRENOM CAT TEMPS
1 VARNIER Sylvain 1 SE 03:12:59
10 GAILLARD Mickael 5 SE 03:42:07
 

24 km défi (10 + 14) semi maré routrail. la Turballe maré trail. la Turballe (44). (10/06/2018)📷

CLASS NOM PRENOM CAT TEMPS
2 SEILLER Gregory 1 V1 01:34:11
48 CHOTARD Alain 9 V2 02:08:08
73 MAZZEI Sabine 2 V2 02:20:25
103 BURGEOT Maryse 1 V3 02:40:43
 

34 km trail. la Turballe maré trail. la Turballe (44). (10/06/2018)📷

CLASS NOM PRENOM CAT TEMPS
2 VARNIER Sylvain 1 SE 02:37:41
22 GAILLARD Mickael 10 SE 03:02:12
45 FOURE Yann 19 V1 03:16:13
47 BOUVIER Thierry 5 V2 03:16:53
70 DAVY Aurélien 28 SE 03:32:57
109 BABU Fabienne 1 V1 03:49:35
120 GUIHO Lionel 43 SE 03:52:33
141 DESMAS Maxime 48 SE 04:02:45
142 DUMONT Emmanuelle 7 SE 04:02:45
144 HALGAND Laurent 23 V2 04:08:27
145 RENAUD Cecilia 10 V1 04:08:28
150 JIMENEZ Lydia 11 V1 04:11:53
157 SAUVOUREL Pascale 1 V2 04:33:41
158 HUGUET Anne 12 V1 04:33:41
 

14 km trail. la Turballe maré trail. la Turballe (44). (10/06/2018)📷

CLASS NOM PRENOM CAT TEMPS
6 SEILLER Gregory 2 V1 00:59:07
127 CHOTARD Alain 14 V2 01:17:40
245 BRIQUET Delphine 16 V1 01:27:50
246